sensor_id;sensor_type;location;lat;lon;timestamp;P1;durP1;ratioP1;P2;durP2;ratioP2
78372;SDS011;67656;52.074;4.758;2023-03-21T00:02:32;27.20;;;9.98;;
78372;SDS011;67656;52.074;4.758;2023-03-21T00:07:32;28.54;;;10.02;;
78372;SDS011;67656;52.074;4.758;2023-03-21T00:12:32;33.38;;;10.72;;
78372;SDS011;67656;52.074;4.758;2023-03-21T00:17:33;35.28;;;10.95;;
78372;SDS011;67656;52.074;4.758;2023-03-21T00:22:34;33.95;;;10.18;;
78372;SDS011;67656;52.074;4.758;2023-03-21T00:27:35;28.42;;;9.18;;
78372;SDS011;67656;52.074;4.758;2023-03-21T00:32:36;28.88;;;9.70;;
78372;SDS011;67656;52.074;4.758;2023-03-21T00:37:36;30.24;;;10.10;;
78372;SDS011;67656;52.074;4.758;2023-03-21T00:42:36;29.77;;;10.43;;
78372;SDS011;67656;52.074;4.758;2023-03-21T00:47:37;35.45;;;11.10;;
78372;SDS011;67656;52.074;4.758;2023-03-21T00:52:39;29.15;;;10.40;;
78372;SDS011;67656;52.074;4.758;2023-03-21T00:57:39;29.75;;;10.57;;
78372;SDS011;67656;52.074;4.758;2023-03-21T01:02:40;34.33;;;10.15;;
78372;SDS011;67656;52.074;4.758;2023-03-21T01:07:40;32.53;;;10.55;;
78372;SDS011;67656;52.074;4.758;2023-03-21T01:12:41;33.25;;;11.05;;
78372;SDS011;67656;52.074;4.758;2023-03-21T01:17:41;36.72;;;12.30;;
78372;SDS011;67656;52.074;4.758;2023-03-21T01:22:41;36.56;;;12.30;;
78372;SDS011;67656;52.074;4.758;2023-03-21T01:27:41;42.44;;;13.40;;
78372;SDS011;67656;52.074;4.758;2023-03-21T01:32:43;39.25;;;12.82;;
78372;SDS011;67656;52.074;4.758;2023-03-21T01:37:45;41.75;;;13.27;;
78372;SDS011;67656;52.074;4.758;2023-03-21T01:42:45;42.22;;;13.05;;
78372;SDS011;67656;52.074;4.758;2023-03-21T01:47:46;42.72;;;13.05;;
78372;SDS011;67656;52.074;4.758;2023-03-21T01:52:54;36.33;;;11.98;;
78372;SDS011;67656;52.074;4.758;2023-03-21T01:58:01;37.80;;;12.35;;
78372;SDS011;67656;52.074;4.758;2023-03-21T02:03:05;45.63;;;12.63;;
78372;SDS011;67656;52.074;4.758;2023-03-21T02:08:14;45.08;;;14.60;;
78372;SDS011;67656;52.074;4.758;2023-03-21T02:13:16;47.28;;;13.18;;
78372;SDS011;67656;52.074;4.758;2023-03-21T02:18:23;43.38;;;13.13;;
78372;SDS011;67656;52.074;4.758;2023-03-21T02:28:53;30.20;;;10.07;;
78372;SDS011;67656;52.074;4.758;2023-03-21T02:34:11;32.63;;;9.18;;
78372;SDS011;67656;52.074;4.758;2023-03-21T02:39:25;31.60;;;9.38;;
78372;SDS011;67656;52.074;4.758;2023-03-21T02:55:33;28.83;;;9.73;;
78372;SDS011;67656;52.074;4.758;2023-03-21T03:05:41;30.45;;;10.32;;
78372;SDS011;67656;52.074;4.758;2023-03-21T03:21:08;31.35;;;9.02;;
78372;SDS011;67656;52.074;4.758;2023-03-21T03:26:16;31.00;;;9.98;;
78372;SDS011;67656;52.074;4.758;2023-03-21T03:31:22;25.17;;;9.20;;
78372;SDS011;67656;52.074;4.758;2023-03-21T03:36:30;28.08;;;8.73;;
78372;SDS011;67656;52.074;4.758;2023-03-21T03:41:56;25.00;;;7.82;;
78372;SDS011;67656;52.074;4.758;2023-03-21T03:47:04;23.40;;;8.25;;
78372;SDS011;67656;52.074;4.758;2023-03-21T03:52:20;21.80;;;7.32;;
78372;SDS011;67656;52.074;4.758;2023-03-21T03:57:32;23.67;;;7.70;;
78372;SDS011;67656;52.074;4.758;2023-03-21T04:02:33;22.27;;;7.53;;
78372;SDS011;67656;52.074;4.758;2023-03-21T04:07:36;22.20;;;7.68;;
78372;SDS011;67656;52.074;4.758;2023-03-21T04:12:36;21.27;;;7.63;;
78372;SDS011;67656;52.074;4.758;2023-03-21T04:17:55;26.23;;;7.60;;
78372;SDS011;67656;52.074;4.758;2023-03-21T04:22:56;20.52;;;6.70;;
78372;SDS011;67656;52.074;4.758;2023-03-21T04:27:57;21.48;;;7.13;;
78372;SDS011;67656;52.074;4.758;2023-03-21T04:33:12;28.38;;;9.20;;
78372;SDS011;67656;52.074;4.758;2023-03-21T04:43:18;26.48;;;9.77;;
78372;SDS011;67656;52.074;4.758;2023-03-21T04:48:19;25.85;;;9.13;;
78372;SDS011;67656;52.074;4.758;2023-03-21T04:53:20;27.83;;;9.13;;
78372;SDS011;67656;52.074;4.758;2023-03-21T04:58:20;32.63;;;11.10;;
78372;SDS011;67656;52.074;4.758;2023-03-21T05:03:21;30.52;;;10.63;;
78372;SDS011;67656;52.074;4.758;2023-03-21T05:08:21;28.33;;;9.55;;
78372;SDS011;67656;52.074;4.758;2023-03-21T05:13:22;33.30;;;11.35;;
78372;SDS011;67656;52.074;4.758;2023-03-21T05:18:23;38.45;;;12.32;;
78372;SDS011;67656;52.074;4.758;2023-03-21T05:23:33;38.35;;;12.95;;
78372;SDS011;67656;52.074;4.758;2023-03-21T05:28:33;34.90;;;12.43;;
78372;SDS011;67656;52.074;4.758;2023-03-21T05:33:35;29.85;;;12.00;;
78372;SDS011;67656;52.074;4.758;2023-03-21T05:38:35;31.52;;;11.30;;
78372;SDS011;67656;52.074;4.758;2023-03-21T05:43:37;33.97;;;11.52;;
78372;SDS011;67656;52.074;4.758;2023-03-21T05:48:39;34.38;;;11.38;;
78372;SDS011;67656;52.074;4.758;2023-03-21T05:53:46;31.08;;;10.52;;
78372;SDS011;67656;52.074;4.758;2023-03-21T05:58:48;30.48;;;11.15;;
78372;SDS011;67656;52.074;4.758;2023-03-21T06:03:49;34.15;;;11.32;;
78372;SDS011;67656;52.074;4.758;2023-03-21T06:08:51;34.08;;;11.07;;
78372;SDS011;67656;52.074;4.758;2023-03-21T06:13:52;30.23;;;10.43;;
78372;SDS011;67656;52.074;4.758;2023-03-21T06:18:55;33.83;;;10.15;;
78372;SDS011;67656;52.074;4.758;2023-03-21T06:24:16;28.63;;;10.48;;
78372;SDS011;67656;52.074;4.758;2023-03-21T06:29:17;30.33;;;9.45;;
78372;SDS011;67656;52.074;4.758;2023-03-21T06:34:22;32.72;;;10.77;;
78372;SDS011;67656;52.074;4.758;2023-03-21T06:39:22;32.42;;;9.27;;
78372;SDS011;67656;52.074;4.758;2023-03-21T06:44:23;29.23;;;9.98;;
78372;SDS011;67656;52.074;4.758;2023-03-21T06:49:32;26.38;;;9.63;;
78372;SDS011;67656;52.074;4.758;2023-03-21T06:54:40;25.15;;;9.18;;
78372;SDS011;67656;52.074;4.758;2023-03-21T06:59:44;29.52;;;9.90;;
78372;SDS011;67656;52.074;4.758;2023-03-21T07:04:49;26.50;;;9.23;;
78372;SDS011;67656;52.074;4.758;2023-03-21T07:09:55;29.45;;;9.50;;
78372;SDS011;67656;52.074;4.758;2023-03-21T07:14:59;26.27;;;8.85;;
78372;SDS011;67656;52.074;4.758;2023-03-21T07:19:59;23.33;;;7.72;;
78372;SDS011;67656;52.074;4.758;2023-03-21T07:25:00;28.08;;;8.73;;
78372;SDS011;67656;52.074;4.758;2023-03-21T07:30:01;25.55;;;7.68;;
78372;SDS011;67656;52.074;4.758;2023-03-21T07:35:05;24.42;;;7.55;;
78372;SDS011;67656;52.074;4.758;2023-03-21T07:40:08;24.48;;;7.97;;
78372;SDS011;67656;52.074;4.758;2023-03-21T07:45:10;20.13;;;7.80;;
78372;SDS011;67656;52.074;4.758;2023-03-21T07:50:11;23.95;;;7.35;;
78372;SDS011;67656;52.074;4.758;2023-03-21T07:55:12;20.33;;;7.38;;
78372;SDS011;67656;52.074;4.758;2023-03-21T08:00:12;19.65;;;7.13;;
78372;SDS011;67656;52.074;4.758;2023-03-21T08:05:13;24.27;;;7.95;;
78372;SDS011;67656;52.074;4.758;2023-03-21T08:10:14;21.98;;;7.05;;
78372;SDS011;67656;52.074;4.758;2023-03-21T08:15:14;23.90;;;7.43;;
78372;SDS011;67656;52.074;4.758;2023-03-21T08:20:16;23.08;;;7.10;;
78372;SDS011;67656;52.074;4.758;2023-03-21T08:25:19;18.92;;;7.22;;
78372;SDS011;67656;52.074;4.758;2023-03-21T08:30:21;17.67;;;6.05;;
78372;SDS011;67656;52.074;4.758;2023-03-21T08:35:23;16.13;;;6.00;;
78372;SDS011;67656;52.074;4.758;2023-03-21T08:40:24;16.95;;;6.35;;
78372;SDS011;67656;52.074;4.758;2023-03-21T08:45:24;15.70;;;5.90;;
78372;SDS011;67656;52.074;4.758;2023-03-21T08:50:25;11.48;;;5.15;;
78372;SDS011;67656;52.074;4.758;2023-03-21T08:55:26;11.07;;;5.00;;
78372;SDS011;67656;52.074;4.758;2023-03-21T09:00:27;12.00;;;4.85;;
78372;SDS011;67656;52.074;4.758;2023-03-21T09:05:27;10.35;;;4.50;;
78372;SDS011;67656;52.074;4.758;2023-03-21T09:10:28;11.63;;;4.28;;
78372;SDS011;67656;52.074;4.758;2023-03-21T09:15:28;12.95;;;4.60;;
78372;SDS011;67656;52.074;4.758;2023-03-21T09:20:29;14.02;;;4.50;;
78372;SDS011;67656;52.074;4.758;2023-03-21T09:25:29;9.90;;;4.32;;
78372;SDS011;67656;52.074;4.758;2023-03-21T09:30:30;11.85;;;5.28;;
78372;SDS011;67656;52.074;4.758;2023-03-21T09:35:35;11.82;;;4.90;;
78372;SDS011;67656;52.074;4.758;2023-03-21T09:50:57;17.48;;;6.10;;
78372;SDS011;67656;52.074;4.758;2023-03-21T09:55:58;13.95;;;5.93;;
78372;SDS011;67656;52.074;4.758;2023-03-21T10:01:13;16.25;;;6.15;;
78372;SDS011;67656;52.074;4.758;2023-03-21T10:06:16;20.38;;;6.00;;
78372;SDS011;67656;52.074;4.758;2023-03-21T10:11:30;14.40;;;5.82;;
78372;SDS011;67656;52.074;4.758;2023-03-21T10:16:39;14.18;;;5.45;;
78372;SDS011;67656;52.074;4.758;2023-03-21T10:21:45;12.65;;;5.38;;
78372;SDS011;67656;52.074;4.758;2023-03-21T10:31:49;13.80;;;6.15;;
78372;SDS011;67656;52.074;4.758;2023-03-21T10:36:51;12.93;;;5.63;;
78372;SDS011;67656;52.074;4.758;2023-03-21T10:41:52;16.50;;;6.57;;
78372;SDS011;67656;52.074;4.758;2023-03-21T10:47:03;16.45;;;6.32;;
78372;SDS011;67656;52.074;4.758;2023-03-21T10:52:16;17.88;;;6.45;;
78372;SDS011;67656;52.074;4.758;2023-03-21T10:57:22;14.50;;;6.10;;
78372;SDS011;67656;52.074;4.758;2023-03-21T11:02:27;16.95;;;5.93;;
78372;SDS011;67656;52.074;4.758;2023-03-21T11:07:29;16.60;;;6.03;;
78372;SDS011;67656;52.074;4.758;2023-03-21T11:12:34;17.65;;;6.15;;
78372;SDS011;67656;52.074;4.758;2023-03-21T11:17:37;20.50;;;5.60;;
78372;SDS011;67656;52.074;4.758;2023-03-21T11:22:39;16.20;;;5.70;;
78372;SDS011;67656;52.074;4.758;2023-03-21T11:27:48;15.13;;;5.90;;
78372;SDS011;67656;52.074;4.758;2023-03-21T11:32:50;10.63;;;5.78;;
78372;SDS011;67656;52.074;4.758;2023-03-21T11:37:54;11.75;;;5.30;;
78372;SDS011;67656;52.074;4.758;2023-03-21T11:42:56;11.00;;;5.80;;
78372;SDS011;67656;52.074;4.758;2023-03-21T11:47:58;16.08;;;5.63;;
78372;SDS011;67656;52.074;4.758;2023-03-21T12:24:21;10.70;;;4.32;;
78372;SDS011;67656;52.074;4.758;2023-03-21T12:45:57;10.00;;;4.50;;
78372;SDS011;67656;52.074;4.758;2023-03-21T12:51:03;10.93;;;4.80;;
78372;SDS011;67656;52.074;4.758;2023-03-21T12:56:16;8.55;;;4.55;;
78372;SDS011;67656;52.074;4.758;2023-03-21T13:01:21;8.23;;;4.45;;
78372;SDS011;67656;52.074;4.758;2023-03-21T13:06:22;9.57;;;4.75;;
78372;SDS011;67656;52.074;4.758;2023-03-21T13:11:26;10.43;;;5.30;;
78372;SDS011;67656;52.074;4.758;2023-03-21T13:16:29;11.85;;;5.20;;
78372;SDS011;67656;52.074;4.758;2023-03-21T13:37:34;10.05;;;5.20;;
78372;SDS011;67656;52.074;4.758;2023-03-21T13:42:41;11.23;;;4.53;;
78372;SDS011;67656;52.074;4.758;2023-03-21T13:47:55;11.35;;;5.22;;
78372;SDS011;67656;52.074;4.758;2023-03-21T14:03:44;10.23;;;4.80;;
78372;SDS011;67656;52.074;4.758;2023-03-21T14:08:45;12.05;;;4.25;;
78372;SDS011;67656;52.074;4.758;2023-03-21T14:13:47;12.95;;;5.40;;
78372;SDS011;67656;52.074;4.758;2023-03-21T14:18:53;11.18;;;4.80;;
78372;SDS011;67656;52.074;4.758;2023-03-21T14:23:56;11.02;;;5.07;;
78372;SDS011;67656;52.074;4.758;2023-03-21T14:29:04;10.23;;;4.80;;
78372;SDS011;67656;52.074;4.758;2023-03-21T14:34:07;12.93;;;5.60;;
78372;SDS011;67656;52.074;4.758;2023-03-21T14:39:30;10.88;;;5.32;;
78372;SDS011;67656;52.074;4.758;2023-03-21T14:44:37;9.90;;;4.85;;
78372;SDS011;67656;52.074;4.758;2023-03-21T14:49:39;12.00;;;4.78;;
78372;SDS011;67656;52.074;4.758;2023-03-21T14:54:39;10.43;;;5.10;;
78372;SDS011;67656;52.074;4.758;2023-03-21T14:59:43;7.47;;;4.27;;
78372;SDS011;67656;52.074;4.758;2023-03-21T15:04:49;13.55;;;4.60;;
78372;SDS011;67656;52.074;4.758;2023-03-21T15:09:56;9.40;;;4.43;;
78372;SDS011;67656;52.074;4.758;2023-03-21T15:15:04;14.80;;;4.95;;
78372;SDS011;67656;52.074;4.758;2023-03-21T15:20:05;9.85;;;4.07;;
78372;SDS011;67656;52.074;4.758;2023-03-21T15:25:07;11.18;;;4.78;;
78372;SDS011;67656;52.074;4.758;2023-03-21T15:30:18;9.07;;;3.80;;
78372;SDS011;67656;52.074;4.758;2023-03-21T15:35:25;6.53;;;3.72;;
78372;SDS011;67656;52.074;4.758;2023-03-21T15:40:33;6.55;;;3.90;;
78372;SDS011;67656;52.074;4.758;2023-03-21T15:45:44;8.60;;;4.60;;
78372;SDS011;67656;52.074;4.758;2023-03-21T15:50:51;11.68;;;4.78;;
78372;SDS011;67656;52.074;4.758;2023-03-21T15:55:55;8.02;;;4.55;;
78372;SDS011;67656;52.074;4.758;2023-03-21T16:00:56;7.88;;;3.53;;
78372;SDS011;67656;52.074;4.758;2023-03-21T16:06:06;6.25;;;3.03;;
78372;SDS011;67656;52.074;4.758;2023-03-21T16:11:11;5.97;;;2.70;;
78372;SDS011;67656;52.074;4.758;2023-03-21T16:16:36;7.70;;;2.65;;
78372;SDS011;67656;52.074;4.758;2023-03-21T16:21:37;5.72;;;2.75;;
78372;SDS011;67656;52.074;4.758;2023-03-21T16:26:40;6.38;;;2.28;;
78372;SDS011;67656;52.074;4.758;2023-03-21T16:32:15;5.70;;;2.40;;
78372;SDS011;67656;52.074;4.758;2023-03-21T16:37:18;7.38;;;2.95;;
78372;SDS011;67656;52.074;4.758;2023-03-21T16:42:21;6.03;;;2.90;;
78372;SDS011;67656;52.074;4.758;2023-03-21T16:47:22;4.95;;;2.65;;
78372;SDS011;67656;52.074;4.758;2023-03-21T16:52:22;9.18;;;3.10;;
78372;SDS011;67656;52.074;4.758;2023-03-21T16:57:26;6.65;;;2.70;;
78372;SDS011;67656;52.074;4.758;2023-03-21T17:02:29;7.45;;;3.22;;
78372;SDS011;67656;52.074;4.758;2023-03-21T17:07:30;6.80;;;3.40;;
78372;SDS011;67656;52.074;4.758;2023-03-21T17:15:30;6.85;;;3.45;;
78372;SDS011;67656;52.074;4.758;2023-03-21T17:20:31;7.20;;;3.42;;
78372;SDS011;67656;52.074;4.758;2023-03-21T17:25:33;9.77;;;3.40;;
78372;SDS011;67656;52.074;4.758;2023-03-21T17:30:34;5.55;;;3.30;;
78372;SDS011;67656;52.074;4.758;2023-03-21T17:35:35;7.35;;;3.90;;
78372;SDS011;67656;52.074;4.758;2023-03-21T17:40:35;6.72;;;3.45;;
78372;SDS011;67656;52.074;4.758;2023-03-21T17:45:42;7.30;;;2.75;;
78372;SDS011;67656;52.074;4.758;2023-03-21T17:50:42;8.15;;;2.20;;
78372;SDS011;67656;52.074;4.758;2023-03-21T17:55:43;3.35;;;1.65;;
78372;SDS011;67656;52.074;4.758;2023-03-21T18:00:43;5.68;;;1.50;;
78372;SDS011;67656;52.074;4.758;2023-03-21T18:05:44;8.70;;;1.10;;
78372;SDS011;67656;52.074;4.758;2023-03-21T18:10:44;6.75;;;1.10;;
78372;SDS011;67656;52.074;4.758;2023-03-21T18:15:44;5.80;;;1.17;;
78372;SDS011;67656;52.074;4.758;2023-03-21T18:20:45;4.88;;;1.25;;
78372;SDS011;67656;52.074;4.758;2023-03-21T18:25:45;2.15;;;0.75;;
78372;SDS011;67656;52.074;4.758;2023-03-21T18:30:46;5.53;;;1.10;;
78372;SDS011;67656;52.074;4.758;2023-03-21T18:35:46;4.30;;;0.90;;
78372;SDS011;67656;52.074;4.758;2023-03-21T18:40:47;6.00;;;1.17;;
78372;SDS011;67656;52.074;4.758;2023-03-21T18:45:47;5.95;;;1.10;;
78372;SDS011;67656;52.074;4.758;2023-03-21T18:50:48;5.38;;;1.02;;
78372;SDS011;67656;52.074;4.758;2023-03-21T18:55:49;5.90;;;0.80;;
78372;SDS011;67656;52.074;4.758;2023-03-21T19:00:49;6.63;;;1.20;;
78372;SDS011;67656;52.074;4.758;2023-03-21T19:05:50;4.20;;;1.00;;
78372;SDS011;67656;52.074;4.758;2023-03-21T19:10:50;5.55;;;1.30;;
78372;SDS011;67656;52.074;4.758;2023-03-21T19:15:50;5.82;;;1.40;;
78372;SDS011;67656;52.074;4.758;2023-03-21T19:20:51;5.72;;;1.50;;
78372;SDS011;67656;52.074;4.758;2023-03-21T19:25:52;7.32;;;1.58;;
78372;SDS011;67656;52.074;4.758;2023-03-21T19:31:01;5.22;;;1.45;;
78372;SDS011;67656;52.074;4.758;2023-03-21T19:36:08;7.80;;;1.58;;
78372;SDS011;67656;52.074;4.758;2023-03-21T19:41:09;6.35;;;1.92;;
78372;SDS011;67656;52.074;4.758;2023-03-21T19:46:09;4.65;;;2.10;;
78372;SDS011;67656;52.074;4.758;2023-03-21T19:51:12;8.13;;;2.78;;
78372;SDS011;67656;52.074;4.758;2023-03-21T19:56:13;12.48;;;3.15;;
78372;SDS011;67656;52.074;4.758;2023-03-21T20:01:14;13.07;;;3.60;;
78372;SDS011;67656;52.074;4.758;2023-03-21T20:06:15;12.10;;;3.88;;
78372;SDS011;67656;52.074;4.758;2023-03-21T20:11:18;10.07;;;3.97;;
78372;SDS011;67656;52.074;4.758;2023-03-21T20:16:19;11.17;;;4.77;;
78372;SDS011;67656;52.074;4.758;2023-03-21T20:21:19;12.65;;;4.90;;
78372;SDS011;67656;52.074;4.758;2023-03-21T20:26:20;8.10;;;3.80;;
78372;SDS011;67656;52.074;4.758;2023-03-21T20:31:20;10.20;;;3.97;;
78372;SDS011;67656;52.074;4.758;2023-03-21T20:36:21;9.50;;;3.60;;
78372;SDS011;67656;52.074;4.758;2023-03-21T20:41:22;8.38;;;2.72;;
78372;SDS011;67656;52.074;4.758;2023-03-21T20:46:25;6.07;;;2.55;;
78372;SDS011;67656;52.074;4.758;2023-03-21T20:51:27;8.88;;;2.88;;
78372;SDS011;67656;52.074;4.758;2023-03-21T20:56:28;5.88;;;2.50;;
78372;SDS011;67656;52.074;4.758;2023-03-21T21:01:28;8.02;;;2.97;;
78372;SDS011;67656;52.074;4.758;2023-03-21T21:06:28;10.45;;;2.33;;
78372;SDS011;67656;52.074;4.758;2023-03-21T21:11:29;5.60;;;2.25;;
78372;SDS011;67656;52.074;4.758;2023-03-21T21:16:29;9.32;;;2.20;;
78372;SDS011;67656;52.074;4.758;2023-03-21T21:21:30;7.85;;;1.70;;
78372;SDS011;67656;52.074;4.758;2023-03-21T21:26:30;7.80;;;1.80;;
78372;SDS011;67656;52.074;4.758;2023-03-21T21:31:31;7.60;;;2.00;;
78372;SDS011;67656;52.074;4.758;2023-03-21T21:36:31;2.90;;;1.63;;
78372;SDS011;67656;52.074;4.758;2023-03-21T21:41:32;6.38;;;1.77;;
78372;SDS011;67656;52.074;4.758;2023-03-21T21:46:32;9.38;;;1.50;;
78372;SDS011;67656;52.074;4.758;2023-03-21T21:51:33;7.20;;;1.30;;
78372;SDS011;67656;52.074;4.758;2023-03-21T21:56:33;9.98;;;1.40;;
78372;SDS011;67656;52.074;4.758;2023-03-21T22:01:34;3.35;;;0.90;;
78372;SDS011;67656;52.074;4.758;2023-03-21T22:06:36;9.95;;;1.58;;
78372;SDS011;67656;52.074;4.758;2023-03-21T22:11:36;4.72;;;1.05;;
78372;SDS011;67656;52.074;4.758;2023-03-21T22:16:36;9.20;;;1.40;;
78372;SDS011;67656;52.074;4.758;2023-03-21T22:21:37;7.85;;;1.23;;
78372;SDS011;67656;52.074;4.758;2023-03-21T22:26:37;7.20;;;1.13;;
78372;SDS011;67656;52.074;4.758;2023-03-21T22:31:37;7.20;;;1.63;;
78372;SDS011;67656;52.074;4.758;2023-03-21T22:36:38;3.80;;;0.95;;
78372;SDS011;67656;52.074;4.758;2023-03-21T22:41:38;5.18;;;1.02;;
78372;SDS011;67656;52.074;4.758;2023-03-21T22:46:38;5.15;;;1.15;;
78372;SDS011;67656;52.074;4.758;2023-03-21T22:51:39;6.72;;;1.00;;
78372;SDS011;67656;52.074;4.758;2023-03-21T22:56:39;3.78;;;1.00;;
78372;SDS011;67656;52.074;4.758;2023-03-21T23:01:40;3.13;;;0.93;;
78372;SDS011;67656;52.074;4.758;2023-03-21T23:06:41;8.15;;;1.23;;
78372;SDS011;67656;52.074;4.758;2023-03-21T23:11:42;3.42;;;1.08;;
78372;SDS011;67656;52.074;4.758;2023-03-21T23:16:42;4.13;;;0.90;;
78372;SDS011;67656;52.074;4.758;2023-03-21T23:21:43;4.43;;;1.10;;
78372;SDS011;67656;52.074;4.758;2023-03-21T23:26:43;3.08;;;1.10;;
78372;SDS011;67656;52.074;4.758;2023-03-21T23:31:44;5.72;;;1.08;;
78372;SDS011;67656;52.074;4.758;2023-03-21T23:36:44;5.88;;;1.30;;
78372;SDS011;67656;52.074;4.758;2023-03-21T23:41:44;5.20;;;1.00;;
78372;SDS011;67656;52.074;4.758;2023-03-21T23:46:45;8.38;;;1.30;;
78372;SDS011;67656;52.074;4.758;2023-03-21T23:51:45;8.85;;;1.75;;
78372;SDS011;67656;52.074;4.758;2023-03-21T23:56:46;3.90;;;1.00;;
